Time;durP1;ratioP1;P1;durP2;ratioP2;P2;SDS_P1;SDS_P2;PMS_P1;PMS_P2;Temp;Humidity;BMP_temperature;BMP_pressure;BME280_temperature;BME280_humidity;BME280_pressure;Samples;Min_cycle;Max_cycle;Signal;HPM_P1;HPM_P2
2023/10/24 00:01:37;;;;;;;17.77;11.77;;;;;;;10.09;100.00;100253.74;1474746;87;22491;-80
2023/10/24 00:04:04;;;;;;;20.10;12.30;;;;;;;10.09;100.00;100243.66;1466998;88;21574;-80
2023/10/24 00:06:30;;;;;;;20.93;11.80;;;;;;;10.04;100.00;100243.27;1453243;88;21441;-80
2023/10/24 00:08:56;;;;;;;19.73;13.30;;;;;;;9.96;100.00;100243.20;1457664;88;21537;-80
2023/10/24 00:11:23;;;;;;;18.50;11.83;;;;;;;9.90;100.00;100236.20;1440486;88;21500;-80
2023/10/24 00:13:49;;;;;;;22.60;14.00;;;;;;;9.87;100.00;100240.46;1469567;88;21389;-80
2023/10/24 00:16:15;;;;;;;19.80;14.20;;;;;;;9.84;100.00;100253.97;1449841;89;22166;-80
2023/10/24 00:18:41;;;;;;;23.40;11.57;;;;;;;9.82;100.00;100250.64;1430667;91;21621;-80
2023/10/24 00:21:08;;;;;;;17.40;11.93;;;;;;;9.84;100.00;100240.75;1439923;89;21529;-80
2023/10/24 00:23:34;;;;;;;17.07;12.63;;;;;;;9.85;100.00;100250.34;1464097;88;21552;-80
2023/10/24 00:26:01;;;;;;;19.13;12.30;;;;;;;9.87;100.00;100245.75;1463279;88;21618;-80
2023/10/24 00:28:27;;;;;;;19.17;13.10;;;;;;;9.88;100.00;100242.11;1457096;89;21552;-81
2023/10/24 00:30:53;;;;;;;18.30;11.57;;;;;;;9.88;100.00;100243.93;1458261;89;21463;-80
2023/10/24 00:33:19;;;;;;;22.27;13.87;;;;;;;9.89;100.00;100245.58;1473574;88;21440;-80
2023/10/24 00:35:45;;;;;;;21.70;12.87;;;;;;;9.93;100.00;100241.19;1473274;88;21418;-79
2023/10/24 00:38:11;;;;;;;18.47;11.07;;;;;;;9.95;100.00;100235.73;1458951;87;21391;-80
2023/10/24 00:40:38;;;;;;;18.53;12.87;;;;;;;9.96;100.00;100236.09;1478783;87;21399;-82
2023/10/24 00:43:04;;;;;;;20.20;12.37;;;;;;;10.00;100.00;100242.73;1460811;87;21583;-81
2023/10/24 00:45:33;;;;;;;17.10;12.50;;;;;;;10.01;100.00;100239.59;1437492;89;21433;-80
2023/10/24 00:47:59;;;;;;;21.57;13.83;;;;;;;10.02;100.00;100234.17;1457648;88;21485;-80
2023/10/24 00:50:27;;;;;;;16.73;10.97;;;;;;;9.99;100.00;100232.33;1465970;88;21677;-79
2023/10/24 00:52:53;;;;;;;19.83;10.90;;;;;;;9.97;100.00;100226.34;1468135;87;22278;-80
2023/10/24 00:55:21;;;;;;;15.23;11.43;;;;;;;9.97;100.00;100223.70;1469878;88;21617;-80
2023/10/24 00:57:49;;;;;;;17.97;12.23;;;;;;;9.92;100.00;100221.49;1468805;88;21559;-78
2023/10/24 01:00:16;;;;;;;17.73;12.53;;;;;;;9.86;100.00;100228.70;1479074;87;21426;-80
2023/10/24 01:02:44;;;;;;;17.70;12.77;;;;;;;9.81;100.00;100226.98;1482507;87;21588;-78
2023/10/24 01:05:11;;;;;;;24.27;12.93;;;;;;;9.77;100.00;100219.84;1488849;88;21396;-77
2023/10/24 01:07:37;;;;;;;14.70;11.53;;;;;;;9.72;100.00;100212.84;1462663;87;22549;-77
2023/10/24 01:10:04;;;;;;;15.80;12.10;;;;;;;9.70;100.00;100216.14;1484134;88;21455;-77
2023/10/24 01:12:32;;;;;;;18.07;12.40;;;;;;;9.71;100.00;100208.55;1486851;88;21640;-79
2023/10/24 01:14:58;;;;;;;16.40;11.33;;;;;;;9.73;100.00;100210.56;1474885;88;21441;-79
2023/10/24 01:17:25;;;;;;;18.77;13.37;;;;;;;9.75;100.00;100220.47;1488631;88;21382;-79
2023/10/24 01:19:51;;;;;;;17.93;13.00;;;;;;;9.81;100.00;100221.23;1477578;88;22351;-81
2023/10/24 01:22:17;;;;;;;22.20;13.40;;;;;;;9.84;100.00;100211.68;1461456;88;21471;-79
2023/10/24 01:24:44;;;;;;;18.20;12.07;;;;;;;9.88;100.00;100217.00;1460302;87;21433;-78
2023/10/24 01:27:11;;;;;;;17.13;11.37;;;;;;;9.93;100.00;100220.03;1463297;87;22381;-78
2023/10/24 01:29:37;;;;;;;31.13;13.53;;;;;;;9.98;100.00;100221.39;1453667;88;21441;-77
2023/10/24 01:32:04;;;;;;;20.97;13.07;;;;;;;10.03;100.00;100219.97;1453139;88;22395;-78
2023/10/24 01:34:31;;;;;;;18.43;12.43;;;;;;;10.10;100.00;100214.94;1473456;88;22469;-78
2023/10/24 01:36:57;;;;;;;18.10;12.60;;;;;;;10.17;100.00;100209.38;1463301;88;21412;-77
2023/10/24 01:39:23;;;;;;;17.73;11.37;;;;;;;10.23;100.00;100208.77;1461151;88;21477;-77
2023/10/24 01:41:50;;;;;;;20.33;12.27;;;;;;;10.29;100.00;100202.08;1481230;87;22487;-78
2023/10/24 01:44:16;;;;;;;17.53;11.73;;;;;;;10.34;100.00;100201.96;1467907;88;21470;-80
2023/10/24 01:46:42;;;;;;;17.10;11.57;;;;;;;10.35;100.00;100202.78;1471305;87;22300;-77
2023/10/24 01:49:08;;;;;;;20.93;13.17;;;;;;;10.34;100.00;100210.39;1471630;88;21419;-78
2023/10/24 01:51:35;;;;;;;19.37;13.20;;;;;;;10.34;100.00;100218.33;1483725;87;22035;-80
2023/10/24 01:54:01;;;;;;;14.60;11.13;;;;;;;10.36;100.00;100219.84;1464023;88;21419;-80
2023/10/24 01:56:27;;;;;;;18.80;12.90;;;;;;;10.38;100.00;100211.25;1474921;88;22343;-80
2023/10/24 01:58:53;;;;;;;21.53;12.93;;;;;;;10.43;100.00;100212.12;1481237;87;21531;-80
2023/10/24 02:01:19;;;;;;;18.90;12.63;;;;;;;10.48;100.00;100211.68;1479541;88;21411;-80
2023/10/24 02:03:45;;;;;;;16.83;11.80;;;;;;;10.53;100.00;100206.73;1457466;88;22525;-80
2023/10/24 02:06:12;;;;;;;26.53;13.80;;;;;;;10.52;100.00;100204.59;1466705;88;21448;-79
2023/10/24 02:08:38;;;;;;;14.97;11.20;;;;;;;10.52;100.00;100205.91;1461044;88;21612;-80
2023/10/24 02:11:04;;;;;;;18.23;12.40;;;;;;;10.51;100.00;100208.73;1461382;88;21456;-80
2023/10/24 02:13:30;;;;;;;22.80;13.87;;;;;;;10.51;100.00;100215.34;1463814;87;21404;-80
2023/10/24 02:15:56;;;;;;;22.43;13.00;;;;;;;10.52;100.00;100213.03;1475961;88;21462;-80
2023/10/24 02:18:22;;;;;;;19.77;12.43;;;;;;;10.55;100.00;100210.07;1467035;88;21412;-80
2023/10/24 02:20:49;;;;;;;17.77;12.20;;;;;;;10.57;100.00;100218.70;1459864;88;21559;-80
2023/10/24 02:23:15;;;;;;;16.73;11.77;;;;;;;10.55;100.00;100224.13;1441734;89;21731;-79
2023/10/24 02:25:41;;;;;;;26.23;13.77;;;;;;;10.51;100.00;100228.58;1457944;88;21492;-80
2023/10/24 02:28:07;;;;;;;16.87;11.17;;;;;;;10.52;100.00;100231.55;1483354;87;21463;-79
2023/10/24 02:30:39;;;;;;;18.70;11.00;;;;;;;10.52;100.00;100225.76;1485411;88;22406;-80
2023/10/24 02:33:06;;;;;;;21.17;12.27;;;;;;;10.50;100.00;100217.63;1469040;88;21508;-79
2023/10/24 02:35:33;;;;;;;19.87;12.33;;;;;;;10.43;100.00;100216.59;1462181;88;21352;-79
2023/10/24 02:37:59;;;;;;;18.37;12.63;;;;;;;10.37;100.00;100210.91;1480473;88;21492;-78
2023/10/24 02:40:25;;;;;;;21.00;13.23;;;;;;;10.37;100.00;100216.20;1470663;88;21403;-79
2023/10/24 02:42:51;;;;;;;22.63;14.23;;;;;;;10.34;100.00;100208.58;1458335;88;21404;-79
2023/10/24 02:45:18;;;;;;;22.43;14.67;;;;;;;10.34;100.00;100207.75;1475769;88;22490;-79
2023/10/24 02:47:44;;;;;;;17.07;12.00;;;;;;;10.34;100.00;100211.22;1465733;88;22781;-79
2023/10/24 02:50:10;;;;;;;22.30;12.07;;;;;;;10.33;100.00;100216.19;1458333;89;21500;-78
2023/10/24 02:52:38;;;;;;;19.30;12.77;;;;;;;10.33;100.00;100201.63;1464129;88;21404;-78
2023/10/24 02:55:06;;;;;;;17.37;12.33;;;;;;;10.36;100.00;100197.86;1461058;88;22483;-78
2023/10/24 02:57:32;;;;;;;24.43;12.20;;;;;;;10.33;100.00;100196.34;1471566;88;21581;-78
2023/10/24 02:59:58;;;;;;;16.13;11.60;;;;;;;10.33;100.00;100196.84;1434465;91;22133;-78
2023/10/24 03:02:24;;;;;;;17.13;12.47;;;;;;;10.36;100.00;100201.33;1408327;92;21510;-78
2023/10/24 03:04:50;;;;;;;17.67;12.20;;;;;;;10.37;100.00;100194.22;1431136;90;21391;-78
2023/10/24 03:07:17;;;;;;;18.30;12.50;;;;;;;10.41;100.00;100204.00;1454737;90;21560;-78
2023/10/24 03:09:43;;;;;;;25.90;13.63;;;;;;;10.45;100.00;100199.59;1428120;91;22194;-78
2023/10/24 03:12:09;;;;;;;15.37;11.37;;;;;;;10.48;100.00;100207.71;1428163;90;21480;-78
2023/10/24 03:14:36;;;;;;;17.00;11.87;;;;;;;10.49;100.00;100208.04;1417810;90;21420;-78
2023/10/24 03:17:03;;;;;;;18.03;12.40;;;;;;;10.51;100.00;100203.44;1437230;90;21448;-78
2023/10/24 03:19:34;;;;;;;18.47;11.60;;;;;;;10.54;100.00;100205.77;1459360;89;21456;-78
2023/10/24 03:22:00;;;;;;;;;;;;;;;10.54;100.00;100199.98;1439722;89;21464;-77
2023/10/24 03:24:29;;;;;;;14.00;10.73;;;;;;;10.54;100.00;100199.98;1432456;89;20339;-78
2023/10/24 03:26:56;;;;;;;20.57;10.00;;;;;;;10.55;100.00;100194.20;1436503;91;21477;-78
2023/10/24 03:29:22;;;;;;;19.63;11.57;;;;;;;10.56;100.00;100202.49;1449511;89;22263;-77
2023/10/24 03:31:48;;;;;;;13.93;10.77;;;;;;;10.56;100.00;100195.88;1439101;89;21501;-79
2023/10/24 03:34:14;;;;;;;16.97;10.60;;;;;;;10.57;100.00;100191.73;1451678;89;21566;-79
2023/10/24 03:36:40;;;;;;;17.10;11.63;;;;;;;10.61;100.00;100190.94;1422230;89;22284;-79
2023/10/24 03:39:06;;;;;;;22.80;12.33;;;;;;;10.64;100.00;100181.36;1456869;89;21412;-79
2023/10/24 03:41:34;;;;;;;18.30;11.60;;;;;;;10.70;100.00;100184.70;1439382;89;21567;-79
2023/10/24 03:44:00;;;;;;;15.60;11.37;;;;;;;10.73;100.00;100179.14;1439093;89;22299;-79
2023/10/24 03:46:26;;;;;;;16.47;11.60;;;;;;;10.77;100.00;100191.06;1456481;89;21552;-79
2023/10/24 03:48:53;;;;;;;17.93;11.27;;;;;;;10.82;100.00;100184.82;1458582;89;21589;-79
2023/10/24 03:51:19;;;;;;;19.60;11.57;;;;;;;10.88;100.00;100189.16;1455490;89;22336;-79
2023/10/24 03:53:45;;;;;;;22.43;11.53;;;;;;;10.90;100.00;100189.31;1448237;89;21441;-79
2023/10/24 03:56:11;;;;;;;21.00;11.33;;;;;;;10.93;100.00;100177.59;1439167;89;21571;-79
2023/10/24 03:58:37;;;;;;;15.37;10.60;;;;;;;10.93;100.00;100168.32;1459930;89;22485;-79
2023/10/24 04:01:04;;;;;;;15.37;10.03;;;;;;;10.93;100.00;100159.05;1451993;89;21516;-79
2023/10/24 04:03:31;;;;;;;16.97;11.10;;;;;;;10.94;100.00;100146.17;1445492;89;21472;-78
2023/10/24 04:05:57;;;;;;;18.03;10.07;;;;;;;10.96;100.00;100134.44;1435898;89;21567;-78
2023/10/24 04:08:23;;;;;;;15.40;10.80;;;;;;;10.97;100.00;100128.14;1445257;89;21405;-79
2023/10/24 04:10:50;;;;;;;17.90;11.10;;;;;;;11.00;100.00;100124.36;1436811;89;21420;-78
2023/10/24 04:13:17;;;;;;;23.57;11.40;;;;;;;10.98;100.00;100128.47;1446271;89;21485;-78
2023/10/24 04:15:43;;;;;;;14.90;10.10;;;;;;;10.99;100.00;100144.72;1456717;89;22285;-79
2023/10/24 04:18:10;;;;;;;15.90;10.03;;;;;;;10.97;100.00;100137.91;1448137;89;21405;-79
2023/10/24 04:20:42;;;;;;;14.33;9.67;;;;;;;11.00;100.00;100130.98;1425904;91;21709;-78
2023/10/24 04:23:14;;;;;;;16.77;10.40;;;;;;;11.05;100.00;100132.66;1459282;89;22536;-79
2023/10/24 04:25:41;;;;;;;16.67;10.40;;;;;;;11.10;100.00;100121.08;1450190;89;21463;-78
2023/10/24 04:28:07;;;;;;;21.57;11.40;;;;;;;11.14;100.00;100113.67;1453325;89;21655;-78
2023/10/24 04:30:33;;;;;;;16.03;10.20;;;;;;;11.14;100.00;100118.47;1435349;89;22396;-78
2023/10/24 04:32:59;;;;;;;18.57;9.77;;;;;;;11.10;100.00;100125.05;1456408;89;21486;-77
2023/10/24 04:35:25;;;;;;;18.87;11.07;;;;;;;11.07;100.00;100135.47;1429932;89;21598;-77
2023/10/24 04:37:52;;;;;;;16.77;11.20;;;;;;;11.08;100.00;100131.02;1448605;89;21412;-76
2023/10/24 04:40:19;;;;;;;14.93;10.60;;;;;;;11.10;100.00;100131.67;1432915;89;21479;-78
2023/10/24 04:42:45;;;;;;;17.50;9.73;;;;;;;11.09;100.00;100128.70;1441679;91;22373;-77
2023/10/24 04:45:12;;;;;;;15.73;10.33;;;;;;;11.06;100.00;100123.72;1442395;89;21427;-76
2023/10/24 04:47:38;;;;;;;13.50;10.83;;;;;;;11.10;100.00;100122.91;1458963;89;21442;-77
2023/10/24 04:50:06;;;;;;;18.30;11.03;;;;;;;11.13;100.00;100118.11;1449451;89;22241;-78
2023/10/24 04:52:32;;;;;;;16.93;11.17;;;;;;;11.17;100.00;100107.55;1455446;89;21567;-78
2023/10/24 04:54:59;;;;;;;15.33;10.27;;;;;;;11.20;100.00;100112.53;1452325;89;21436;-77
2023/10/24 04:57:25;;;;;;;18.47;11.67;;;;;;;11.18;100.00;100113.17;1446678;89;21405;-78
2023/10/24 04:59:51;;;;;;;14.20;10.63;;;;;;;11.15;100.00;100114.81;1455524;89;22271;-79
2023/10/24 05:02:17;;;;;;;16.73;11.03;;;;;;;11.11;100.00;100109.52;1441647;89;21397;-79
2023/10/24 05:04:44;;;;;;;20.87;12.27;;;;;;;11.08;100.00;100105.86;1435843;89;21524;-79
2023/10/24 05:07:10;;;;;;;18.50;10.80;;;;;;;11.06;100.00;100110.48;1447414;89;22410;-79
2023/10/24 05:09:36;;;;;;;17.47;12.20;;;;;;;11.06;100.00;100107.83;1461870;89;21605;-78
2023/10/24 05:12:04;;;;;;;14.63;10.00;;;;;;;11.08;100.00;100116.45;1438439;89;21419;-79
2023/10/24 05:14:31;;;;;;;15.10;9.83;;;;;;;11.09;100.00;100103.55;1444181;89;21368;-79
2023/10/24 05:16:57;;;;;;;13.77;11.13;;;;;;;11.11;100.00;100105.55;1448399;89;21485;-80
2023/10/24 05:19:23;;;;;;;16.80;9.63;;;;;;;11.14;100.00;100102.58;1440067;89;21524;-80
2023/10/24 05:21:49;;;;;;;18.43;11.50;;;;;;;11.18;100.00;100107.05;1444803;89;21413;-76
2023/10/24 05:24:15;;;;;;;16.47;10.50;;;;;;;11.19;100.00;100103.41;1430854;90;21494;-78
2023/10/24 05:26:41;;;;;;;17.37;9.93;;;;;;;11.20;100.00;100107.23;1425711;90;22053;-77
2023/10/24 05:29:07;;;;;;;16.80;10.97;;;;;;;11.21;100.00;100105.41;1422835;91;21472;-78
2023/10/24 05:31:34;;;;;;;15.17;10.73;;;;;;;11.20;100.00;100109.88;1423363;91;21442;-77
2023/10/24 05:34:00;;;;;;;15.17;11.17;;;;;;;11.24;100.00;100107.73;1459828;89;22453;-77
2023/10/24 05:36:26;;;;;;;14.27;9.77;;;;;;;11.27;100.00;100106.09;1455201;89;21411;-77
2023/10/24 05:38:53;;;;;;;16.17;10.40;;;;;;;11.27;100.00;100101.61;1456957;88;21462;-77
2023/10/24 05:41:20;;;;;;;25.83;11.87;;;;;;;11.27;100.00;100112.72;1444695;89;22581;-77
2023/10/24 05:43:46;;;;;;;18.97;10.33;;;;;;;11.27;100.00;100110.89;1457463;89;21509;-77
2023/10/24 05:46:12;;;;;;;22.10;10.63;;;;;;;11.29;100.00;100114.22;1442746;89;21456;-78
2023/10/24 05:48:39;;;;;;;14.53;11.07;;;;;;;11.30;100.00;100117.19;1442714;89;22063;-78
2023/10/24 05:51:12;;;;;;;19.57;10.50;;;;;;;11.34;100.00;100116.90;1469786;88;21434;-77
2023/10/24 05:53:38;;;;;;;15.03;10.23;;;;;;;11.38;100.00;100119.05;1478854;88;22215;-78
2023/10/24 05:56:05;;;;;;;16.50;9.30;;;;;;;11.45;100.00;100123.20;1481685;88;21449;-81
2023/10/24 05:58:32;;;;;;;14.13;9.87;;;;;;;11.49;100.00;100121.91;1475513;88;21448;-82
2023/10/24 06:00:58;;;;;;;20.33;8.97;;;;;;;11.55;100.00;100115.14;1480060;88;21455;-81
2023/10/24 06:03:27;;;;;;;18.33;9.77;;;;;;;11.61;100.00;100115.31;1456759;88;21412;-80
2023/10/24 06:06:12;;;;;;;19.17;10.40;;;;;;;11.64;100.00;100121.61;1466305;88;21818;-79
2023/10/24 06:08:39;;;;;;;16.77;10.40;;;;;;;11.67;100.00;100105.88;1470672;88;21576;-79
2023/10/24 06:11:06;;;;;;;15.67;11.73;;;;;;;11.69;100.00;100096.78;1462352;88;22435;-80
2023/10/24 06:13:32;;;;;;;12.73;9.43;;;;;;;11.68;100.00;100084.53;1483754;88;22308;-80
2023/10/24 06:16:13;;;;;;;17.10;10.73;;;;;;;11.67;100.00;100075.40;1467643;88;21618;-77
2023/10/24 06:18:39;;;;;;;25.57;11.73;;;;;;;11.63;100.00;100078.88;1383070;87;21516;-77
2023/10/24 06:21:06;;;;;;;20.77;11.53;;;;;;;11.62;100.00;100083.00;1382986;88;21478;-77
2023/10/24 06:23:33;;;;;;;17.37;10.90;;;;;;;11.64;100.00;100080.52;1384687;88;21434;-77
2023/10/24 06:26:00;;;;;;;15.77;10.67;;;;;;;11.71;100.00;100085.52;1377694;89;21368;-77
2023/10/24 06:28:26;;;;;;;13.83;9.43;;;;;;;11.81;100.00;100085.36;1407939;87;21625;-78
2023/10/24 06:31:00;;;;;;;13.33;9.43;;;;;;;11.93;100.00;100088.05;1480826;87;21510;-77
2023/10/24 06:33:27;;;;;;;18.03;10.33;;;;;;;12.09;100.00;100085.91;1494327;87;22412;-78
2023/10/24 06:35:54;;;;;;;19.77;11.07;;;;;;;12.27;100.00;100080.94;1492199;87;21459;-79
2023/10/24 06:38:21;;;;;;;21.23;11.97;;;;;;;12.43;100.00;100086.23;1412689;87;22272;-78
2023/10/24 06:40:47;;;;;;;14.53;9.13;;;;;;;12.54;100.00;100099.14;1413169;87;21444;-78
2023/10/24 06:43:14;;;;;;;14.60;10.53;;;;;;;12.67;100.00;100103.12;1401539;88;21473;-78
2023/10/24 06:45:45;;;;;;;15.13;9.47;;;;;;;12.80;100.00;100103.40;1414170;87;21441;-79
2023/10/24 06:48:11;;;;;;;16.65;9.65;;;;;;;12.90;100.00;100099.24;1539222;88;21376;-79
2023/10/24 06:50:39;;;;;;;17.50;9.87;;;;;;;13.05;100.00;100101.00;1389607;90;21361;-78
2023/10/24 06:53:06;;;;;;;18.23;10.33;;;;;;;13.22;100.00;100101.77;1376486;90;21383;-78
2023/10/24 06:55:33;;;;;;;16.93;10.30;;;;;;;13.33;100.00;100104.59;1402541;89;21583;-78
2023/10/24 06:57:59;;;;;;;18.00;9.83;;;;;;;13.44;100.00;100101.55;1534083;90;21332;-79
2023/10/24 07:00:25;;;;;;;16.43;9.90;;;;;;;13.52;100.00;100101.51;1378113;90;21534;-78
2023/10/24 07:02:54;;;;;;;17.53;8.30;;;;;;;13.59;100.00;100098.15;1378255;88;21486;-77
2023/10/24 07:05:20;;;;;;;19.43;9.57;;;;;;;13.64;100.00;100099.78;1392293;87;22264;-78
2023/10/24 07:07:46;;;;;;;20.73;10.47;;;;;;;13.73;100.00;100096.89;1379555;87;21420;-78
2023/10/24 07:10:13;;;;;;;27.67;12.07;;;;;;;13.83;100.00;100092.66;1378213;90;21451;-78
2023/10/24 07:12:39;;;;;;;21.67;8.67;;;;;;;13.86;100.00;100094.96;1381191;89;21458;-77
2023/10/24 07:15:07;;;;;;;16.70;8.67;;;;;;;13.95;100.00;100093.92;1383733;90;21375;-76
2023/10/24 07:17:33;;;;;;;13.90;9.23;;;;;;;14.07;100.00;100089.01;1389465;90;21508;-77
2023/10/24 07:20:00;;;;;;;23.43;9.23;;;;;;;14.22;100.00;100076.56;1455861;88;21507;-79
2023/10/24 07:22:30;;;;;;;15.17;8.23;;;;;;;14.37;100.00;100075.27;1448637;89;21516;-89
2023/10/24 07:24:56;;;;;;;16.15;8.63;;;;;;;14.53;100.00;100065.48;1456782;89;21515;-91
2023/10/24 07:27:23;;;;;;;13.57;7.67;;;;;;;14.63;100.00;100060.73;1456203;89;22049;-78
2023/10/24 07:29:49;;;;;;;13.57;8.60;;;;;;;14.77;100.00;100063.08;1454669;89;21590;-78
2023/10/24 07:32:15;;;;;;;11.23;7.57;;;;;;;14.89;100.00;100069.08;1476350;88;22358;-78
2023/10/24 07:34:41;;;;;;;13.77;7.67;;;;;;;15.01;100.00;100072.62;1476774;87;21591;-78
2023/10/24 07:37:08;;;;;;;12.23;8.70;;;;;;;15.17;100.00;100060.95;1468949;87;21439;-78
2023/10/24 07:39:36;;;;;;;17.77;8.87;;;;;;;15.30;100.00;100062.41;1437579;87;21463;-80
2023/10/24 07:42:03;;;;;;;12.33;7.80;;;;;;;15.45;100.00;100063.71;1409026;87;21323;-80
2023/10/24 07:44:30;;;;;;;14.73;8.10;;;;;;;15.60;100.00;100065.84;1567552;87;21338;-79
2023/10/24 07:46:56;;;;;;;15.93;8.97;;;;;;;15.69;100.00;100061.25;1394204;88;21426;-81
2023/10/24 07:49:22;;;;;;;16.07;8.23;;;;;;;15.78;100.00;100058.77;1458647;88;21514;-85
2023/10/24 07:51:48;;;;;;;10.97;7.77;;;;;;;15.94;100.00;100067.01;1480836;87;21462;-81
2023/10/24 07:54:17;;;;;;;18.07;8.30;;;;;;;16.05;100.00;100070.50;1469222;88;21463;-81
2023/10/24 07:56:43;;;;;;;14.60;7.97;;;;;;;16.01;100.00;100075.41;1483083;87;21506;-81
2023/10/24 07:59:09;;;;;;;16.97;7.77;;;;;;;16.12;100.00;100074.59;1477931;88;21544;-80
2023/10/24 08:01:36;;;;;;;15.60;8.20;;;;;;;16.33;100.00;100067.05;1482619;87;21492;-80
2023/10/24 08:04:03;;;;;;;16.43;8.37;;;;;;;16.49;100.00;100074.78;1478434;87;21671;-82
2023/10/24 08:06:29;;;;;;;16.37;7.07;;;;;;;16.55;100.00;100073.99;1489735;87;21596;-81
2023/10/24 08:08:55;;;;;;;15.27;8.10;;;;;;;16.62;100.00;100068.69;1490958;88;21529;-79
2023/10/24 08:11:21;;;;;;;13.07;7.50;;;;;;;16.67;100.00;100065.74;1485386;88;22542;-88
2023/10/24 08:13:47;;;;;;;12.87;8.23;;;;;;;16.76;100.00;100049.07;1482034;87;21471;-86
2023/10/24 08:16:14;;;;;;;15.67;8.03;;;;;;;16.84;100.00;100056.94;1486962;87;21455;-87
2023/10/24 08:18:41;;;;;;;15.93;7.67;;;;;;;17.07;100.00;100059.83;1483473;87;22232;-87
2023/10/24 08:21:07;;;;;;;10.88;7.70;;;;;;;17.29;100.00;100060.02;1480512;88;21581;-86
2023/10/24 08:23:34;;;;;;;12.25;7.55;;;;;;;17.46;100.00;100055.11;1479427;87;22440;-86
2023/10/24 08:26:00;;;;;;;16.77;7.65;;;;;;;17.73;100.00;100055.20;1472836;87;21547;-86
2023/10/24 08:28:26;;;;;;;13.65;6.55;;;;;;;18.03;100.00;100051.64;1476191;87;21427;-82
2023/10/24 08:30:52;;;;;;;13.50;5.12;;;;;;;18.32;100.00;100053.08;1473548;88;21607;-86
2023/10/24 08:33:20;;;;;;;12.07;5.05;;;;;;;18.46;100.00;100049.35;1471064;88;21456;-86
2023/10/24 08:35:47;;;;;;;10.78;5.35;;;;;;;18.61;100.00;100042.41;1476350;87;21619;-87
2023/10/24 08:38:13;;;;;;;13.60;5.60;;;;;;;18.79;100.00;100027.06;1473952;88;21456;-85
2023/10/24 08:40:44;;;;;;;15.03;6.05;;;;;;;18.93;100.00;100033.19;1472992;88;21486;-86
2023/10/24 08:43:10;;;;;;;;;;;;;;;19.07;100.00;100023.23;1471896;88;21648;-86
2023/10/24 08:45:36;;;;;;;14.40;5.60;;;;;;;19.36;100.00;100010.63;1480291;87;20810;-85
2023/10/24 08:48:06;;;;;;;13.18;4.75;;;;;;;19.36;100.00;100010.63;1472609;88;21491;-86
2023/10/24 08:50:33;;;;;;;11.60;4.40;;;;;;;19.52;100.00;100028.58;1476177;87;21522;-86
2023/10/24 08:53:01;;;;;;;20.27;4.75;;;;;;;19.64;100.00;100027.37;1475372;87;21545;-86
2023/10/24 08:55:28;;;;;;;15.20;4.25;;;;;;;19.74;100.00;100017.84;1467370;88;21627;-86
2023/10/24 08:57:56;;;;;;;7.97;4.10;;;;;;;19.83;100.00;100016.53;1474463;87;22311;-87
2023/10/24 09:00:23;;;;;;;12.05;4.55;;;;;;;19.97;100.00;100021.80;1472210;87;21390;-88
2023/10/24 09:02:49;;;;;;;6.92;3.75;;;;;;;20.24;100.00;100016.48;1476399;87;21449;-77
2023/10/24 09:05:17;;;;;;;11.57;4.15;;;;;;;20.24;100.00;100016.48;1474221;88;21574;-79
2023/10/24 09:07:44;;;;;;;10.98;4.53;;;;;;;20.35;100.00;100023.53;1476216;87;21605;-79
2023/10/24 09:10:10;;;;;;;12.75;5.40;;;;;;;20.65;100.00;100015.59;1485141;87;22468;-78
2023/10/24 09:12:39;;;;;;;11.80;4.03;;;;;;;21.09;100.00;100013.12;1473413;87;21471;-78
2023/10/24 09:15:11;;;;;;;10.30;3.62;;;;;;;21.54;100.00;100006.52;1474343;87;21427;-78
2023/10/24 09:17:38;;;;;;;8.93;3.75;;;;;;;21.99;100.00;100013.59;1476837;87;21442;-79
2023/10/24 09:20:06;;;;;;;9.98;3.60;;;;;;;22.53;100.00;100019.72;1475984;88;21675;-78
2023/10/24 09:22:34;;;;;;;8.05;3.22;;;;;;;22.98;100.00;100008.80;1477045;87;21449;-78
2023/10/24 09:25:03;;;;;;;10.35;4.00;;;;;;;23.24;100.00;100000.66;1488656;87;21514;-79
2023/10/24 09:27:29;;;;;;;7.15;3.10;;;;;;;23.50;100.00;100003.30;1492534;88;21507;-78
2023/10/24 09:29:56;;;;;;;18.32;3.77;;;;;;;23.31;100.00;100008.64;1488500;87;21456;-79
2023/10/24 09:32:22;;;;;;;10.25;3.72;;;;;;;22.82;100.00;100011.70;1480269;88;22505;-78
2023/10/24 09:34:49;;;;;;;10.38;3.83;;;;;;;22.40;100.00;100012.39;1488582;88;23036;-78
2023/10/24 09:37:15;;;;;;;9.10;3.92;;;;;;;22.08;100.00;100001.41;1488231;87;21507;-78
2023/10/24 09:40:03;;;;;;;9.30;3.25;;;;;;;21.74;100.00;99995.45;1487364;87;22532;-78
2023/10/24 09:42:32;;;;;;;12.47;3.98;;;;;;;21.46;100.00;99989.34;1474057;88;21456;-78
2023/10/24 09:45:01;;;;;;;24.05;4.08;;;;;;;21.40;100.00;99981.13;1492514;87;22352;-78
2023/10/24 09:47:28;;;;;;;12.13;3.00;;;;;;;21.41;100.00;99972.55;1482315;87;22609;-78
2023/10/24 09:49:57;;;;;;;8.68;3.08;;;;;;;21.55;100.00;99971.80;1471092;88;22473;-79
2023/10/24 09:52:31;;;;;;;12.65;3.55;;;;;;;21.48;100.00;99967.88;1493312;88;21448;-78
2023/10/24 09:54:55;;;;;;;17.95;3.10;;;;;;;21.35;100.00;99971.57;1483786;87;21440;-78
2023/10/24 09:57:23;;;;;;;7.95;2.83;;;;;;;21.24;100.00;99964.80;1483034;87;21603;-79
2023/10/24 09:59:54;;;;;;;11.28;3.50;;;;;;;21.10;100.00;99966.32;1476861;88;22439;-78
2023/10/24 10:02:21;;;;;;;12.03;3.02;;;;;;;20.95;100.00;99963.22;1473321;88;21477;-78
2023/10/24 10:04:51;;;;;;;17.40;3.20;;;;;;;20.81;100.00;99946.95;1484114;87;21418;-78
2023/10/24 10:07:18;;;;;;;12.80;3.60;;;;;;;20.74;100.00;99949.71;1481016;87;21522;-77
2023/10/24 10:09:52;;;;;;;8.38;3.05;;;;;;;20.65;100.00;99940.31;1486379;87;22477;-78
2023/10/24 10:12:18;;;;;;;14.07;3.70;;;;;;;20.55;100.00;99942.73;1482348;87;21647;-77
2023/10/24 10:15:14;;;;;;;9.90;3.00;;;;;;;20.42;100.00;99944.99;1490330;88;21441;-78
2023/10/24 10:18:20;;;;;;;12.13;4.00;;;;;;;20.38;100.00;99931.72;1481717;87;21404;-78
2023/10/24 10:21:07;;;;;;;11.85;3.12;;;;;;;20.31;100.00;99930.95;1455237;87;21576;-78
2023/10/24 10:24:03;;;;;;;9.18;3.72;;;;;;;20.27;100.00;99922.00;1488093;88;21641;-78
2023/10/24 10:27:26;;;;;;;14.83;3.05;;;;;;;20.27;100.00;99928.72;1484726;87;21484;-78
2023/10/24 10:30:22;;;;;;;9.45;3.42;;;;;;;20.26;100.00;99921.71;1479202;87;21506;-78
2023/10/24 10:33:10;;;;;;;12.45;3.52;;;;;;;20.27;100.00;99920.66;1480114;87;21455;-78
2023/10/24 10:36:02;;;;;;;6.53;3.00;;;;;;;20.27;100.00;99921.19;1486748;87;21434;-79
2023/10/24 10:38:39;;;;;;;8.63;2.92;;;;;;;20.26;100.00;99928.95;1484927;88;21679;-78
2023/10/24 10:41:28;;;;;;;8.13;3.37;;;;;;;20.06;100.00;99914.38;1493710;87;21492;-79
2023/10/24 10:43:59;;;;;;;12.73;3.08;;;;;;;20.11;100.00;99917.23;1483911;87;22395;-81
2023/10/24 10:46:32;;;;;;;10.20;3.50;;;;;;;20.11;100.00;99917.23;1486493;88;21454;-81
2023/10/24 10:49:06;;;;;;;12.90;3.37;;;;;;;20.19;100.00;99922.28;1485917;87;21654;-80
2023/10/24 10:51:36;;;;;;;10.48;3.20;;;;;;;20.19;100.00;99914.22;1499214;87;22090;-81
2023/10/24 10:54:21;;;;;;;;;;;;;;;20.22;100.00;99911.09;1491115;87;21507;-80
2023/10/24 10:56:49;;;;;;;11.10;2.75;;;;;;;20.21;100.00;99894.69;1482895;87;20288;-81
2023/10/24 10:59:45;;;;;;;14.55;3.85;;;;;;;20.21;100.00;99894.69;1483300;87;22446;-81
2023/10/24 11:02:55;;;;;;;16.48;2.62;;;;;;;20.32;100.00;99900.37;1481068;87;21625;-79
2023/10/24 11:05:45;;;;;;;6.22;2.72;;;;;;;20.37;100.00;99881.68;1485530;87;21463;-79
2023/10/24 11:08:18;;;;;;;13.78;3.05;;;;;;;20.47;100.00;99890.05;1483554;87;21419;-79
2023/10/24 11:11:03;;;;;;;17.92;3.40;;;;;;;20.51;100.00;99877.78;1477761;87;21486;-79
2023/10/24 11:13:37;;;;;;;13.20;3.65;;;;;;;20.55;100.00;99884.41;1479927;88;21456;-78
2023/10/24 11:16:07;;;;;;;7.22;3.15;;;;;;;20.63;100.00;99880.56;1482372;88;21493;-79